Terminal Aerodrome Forecast
Issued by NWS

Home | Current Version | Previous Version | Text Only | Print | Product List | Glossary On
Versions: 1 2 3 4 5 6 7 8 9 10 11 12 13 14 15 16 17 18 19 20 21 22 23 24 25 26 27 28 29 30 31 32 33 34 35 36 37 38 39 40 41 42 43 44 45 46 47 48 49 50
000
FTUS41 KCTP 281824 AAA
TAFJST
TAF AMD
KJST 281824Z 2818/2918 23008KT 5SM -RA BR FEW006 BKN090 OVC100
     FM282100 34004KT 4SM -SHRA HZ OVC050
      TEMPO 2900/2904 2SM -RA BR OVC007
     FM290900 29004KT 2SM BR OVC007
     FM291500 32006KT P6SM OVC050=

USA.gov is the U.S. government's official web portal to all federal, state and local government web resources and services.